createdAt,value
2023-02-03T00:04:09.629Z,7.9
2023-02-03T00:14:11.168Z,7.9
2023-02-03T00:24:12.488Z,7.9
2023-02-03T00:54:17.760Z,7.9
2023-02-03T01:04:19.138Z,7.9
2023-02-03T01:14:20.954Z,8
2023-02-03T01:24:22.293Z,8.1
2023-02-03T01:34:23.844Z,8.1
2023-02-03T01:44:25.453Z,8.1
2023-02-03T01:54:26.756Z,8.1
2023-02-03T02:24:30.540Z,8.1
2023-02-03T02:34:32.493Z,8.1
2023-02-03T02:44:34.368Z,8.1
2023-02-03T02:54:35.464Z,8
2023-02-03T03:04:36.838Z,8
2023-02-03T03:14:38.248Z,8
2023-02-03T03:24:39.950Z,8
2023-02-03T03:34:41.934Z,8.1
2023-02-03T03:44:43.375Z,8.1
2023-02-03T04:04:46.702Z,8
2023-02-03T04:44:53.237Z,8.1
2023-02-03T06:45:12.762Z,8.2
2023-02-03T06:55:14.594Z,8.2
2023-02-03T07:05:16.299Z,8.2
2023-02-03T07:15:18.392Z,8.1
2023-02-03T07:25:19.976Z,8.2
2023-02-03T07:35:21.461Z,8.4
2023-02-03T07:45:23.482Z,8.3
2023-02-03T07:55:24.734Z,8.4
2023-02-03T08:05:25.808Z,8.3
2023-02-03T08:15:27.025Z,8.4
2023-02-03T08:25:28.150Z,8.5
2023-02-03T08:35:29.800Z,8.5
2023-02-03T08:45:31.438Z,8.5
2023-02-03T09:05:33.916Z,8.6
2023-02-03T09:28:15.476Z,8.6
2023-02-03T09:35:47.796Z,8.6
2023-02-03T09:45:48.992Z,8.7
2023-02-03T09:55:50.079Z,8.7
2023-02-03T10:05:51.845Z,8.7
2023-02-03T10:15:53.540Z,8.7
2023-02-03T10:25:57.227Z,8.7
2023-02-03T10:35:57.312Z,8.8
2023-02-03T10:45:58.853Z,8.8
2023-02-03T10:55:59.955Z,8.8
2023-02-03T11:16:02.838Z,8.9
2023-02-03T11:26:04.207Z,8.9
2023-02-03T11:36:05.752Z,8.7
2023-02-03T11:46:07.340Z,8.7
2023-02-03T11:56:08.424Z,8.7
2023-02-03T12:06:09.895Z,8.9
2023-02-03T12:26:13.505Z,9.1
2023-02-03T12:36:14.985Z,8.9
2023-02-03T12:46:16.197Z,8.7
2023-02-03T12:56:17.583Z,8.7
2023-02-03T13:06:18.951Z,8.2
2023-02-03T13:16:21.040Z,8.1
2023-02-03T13:26:22.345Z,8.1
2023-02-03T13:36:24.256Z,8
2023-02-03T13:46:25.598Z,8
2023-02-03T13:56:26.923Z,8.1
2023-02-03T14:06:28.460Z,8.1
2023-02-03T14:16:29.562Z,8.1
2023-02-03T14:26:31.164Z,8.2
2023-02-03T14:36:32.433Z,8.2
2023-02-03T14:46:34.265Z,8.2
2023-02-03T14:56:35.393Z,8.1
2023-02-03T15:16:38.771Z,8.2
2023-02-03T15:26:40.699Z,8.1
2023-02-03T15:36:42.696Z,8.1
2023-02-03T15:46:44.789Z,8.1
2023-02-03T15:56:45.911Z,8.1
2023-02-03T16:06:47.900Z,8
2023-02-03T16:26:51.227Z,8
2023-02-03T16:36:52.809Z,7.8
2023-02-03T16:46:54.007Z,7.7
2023-02-03T16:56:56.626Z,7.7
2023-02-03T17:06:56.998Z,7.7
2023-02-03T17:16:58.179Z,7.7
2023-02-03T17:26:59.434Z,7.6
2023-02-03T17:37:01.252Z,7.6
2023-02-03T17:57:04.430Z,7.6
2023-02-03T18:07:06.263Z,7.7
2023-02-03T18:17:07.606Z,7.6
2023-02-03T18:27:09.363Z,7.5
2023-02-03T18:37:11.029Z,7.5
2023-02-03T18:47:12.512Z,7.4
2023-02-03T18:57:14.327Z,7.4
2023-02-03T19:17:18.069Z,7.2
2023-02-03T19:27:19.553Z,7.2
2023-02-03T19:37:21.179Z,7
2023-02-03T19:47:22.656Z,7
2023-02-03T19:57:24.390Z,7
2023-02-03T20:07:25.673Z,6.9
2023-02-03T20:17:26.909Z,6.9
2023-02-03T20:27:28.275Z,6.8
2023-02-03T20:37:29.819Z,6.8
2023-02-03T20:47:31.280Z,6.7
2023-02-03T20:57:33.178Z,6.6
2023-02-03T21:07:34.988Z,6.6
2023-02-03T21:17:36.632Z,6.5
2023-02-03T21:27:37.960Z,6.5
2023-02-03T21:37:39.387Z,6.5
2023-02-03T21:47:40.590Z,6.4
2023-02-03T21:57:41.912Z,6.5
2023-02-03T22:07:43.792Z,6.4
2023-02-03T22:17:45.409Z,6.3
2023-02-03T22:27:47.357Z,6.2
2023-02-03T22:37:48.915Z,6.2
2023-02-03T22:47:50.770Z,6.2
2023-02-03T22:57:52.809Z,6.1
2023-02-03T23:07:54.257Z,6
2023-02-03T23:17:55.853Z,5.9
2023-02-03T23:27:57.312Z,5.8
2023-02-03T23:37:58.756Z,5.6
2023-02-03T23:48:00.170Z,5.5
2023-02-03T23:58:01.296Z,5.6
